createdAt,value
2019-04-21T00:00:32.848Z,11.10
2019-04-21T00:03:08.857Z,11.30
2019-04-21T00:05:52.396Z,11.30
2019-04-21T00:08:37.618Z,11.20
2019-04-21T00:10:56.544Z,11.10
2019-04-21T00:13:20.726Z,10.80
2019-04-21T00:15:40.649Z,10.60
2019-04-21T00:18:40.682Z,10.40
2019-04-21T00:21:12.275Z,10.30
2019-04-21T00:23:49.416Z,10.20
2019-04-21T00:26:20.901Z,10.00
2019-04-21T00:29:02.019Z,9.90
2019-04-21T00:31:23.032Z,9.80
2019-04-21T00:33:37.092Z,10.00
2019-04-21T00:36:11.266Z,9.80
2019-04-21T00:39:09.549Z,9.70
2019-04-21T00:41:27.673Z,9.60
2019-04-21T00:43:49.378Z,9.60
2019-04-21T00:46:19.022Z,9.60
2019-04-21T00:48:59.201Z,9.50
2019-04-21T00:51:40.267Z,9.40
2019-04-21T00:54:05.750Z,9.50
2019-04-21T00:56:28.870Z,9.40
2019-04-21T00:58:59.856Z,9.40
2019-04-21T01:01:26.817Z,9.40
2019-04-21T01:04:05.307Z,9.40
2019-04-21T01:06:31.038Z,9.50
2019-04-21T01:08:59.059Z,9.50
2019-04-21T01:11:31.719Z,9.50
2019-04-21T01:14:05.131Z,9.50
2019-04-21T01:16:33.164Z,9.60
2019-04-21T01:19:02.190Z,9.60
2019-04-21T01:21:14.240Z,9.40
2019-04-21T01:23:42.359Z,9.40
2019-04-21T01:26:24.904Z,9.50
2019-04-21T01:29:02.834Z,9.40
2019-04-21T01:31:28.221Z,9.40
2019-04-21T01:34:02.906Z,9.40
2019-04-21T01:36:29.845Z,9.40
2019-04-21T01:39:07.955Z,9.20
2019-04-21T01:41:43.121Z,9.10
2019-04-21T01:44:02.479Z,9.00
2019-04-21T01:46:30.866Z,8.90
2019-04-21T01:48:58.106Z,8.90
2019-04-21T01:51:38.419Z,8.90
2019-04-21T01:54:18.451Z,9.00
2019-04-21T01:57:12.340Z,9.10
2019-04-21T01:59:36.657Z,9.20
2019-04-21T02:02:21.680Z,9.30
2019-04-21T02:04:54.173Z,9.30
2019-04-21T02:07:15.145Z,9.20
2019-04-21T02:09:46.429Z,9.10
2019-04-21T02:12:18.913Z,9.10
2019-04-21T02:14:50.379Z,9.00
2019-04-21T02:17:16.290Z,9.30
2019-04-21T02:19:41.244Z,9.30
2019-04-21T02:22:25.874Z,9.20
2019-04-21T02:25:10.814Z,9.10
2019-04-21T02:27:22.176Z,9.00
2019-04-21T02:29:55.138Z,9.00
2019-04-21T02:32:38.402Z,9.10
2019-04-21T02:35:14.631Z,9.10
2019-04-21T02:40:08.427Z,9.00
2019-04-21T02:42:41.838Z,9.00
2019-04-21T02:45:00.370Z,9.00
2019-04-21T02:50:16.233Z,9.00
2019-04-21T02:52:37.767Z,9.00
2019-04-21T02:55:02.669Z,9.00
2019-04-21T02:57:34.670Z,8.90
2019-04-21T03:00:18.606Z,8.90
2019-04-21T03:02:59.029Z,8.90
2019-04-21T03:10:51.744Z,8.80
2019-04-21T03:13:14.052Z,8.80
2019-04-21T03:18:19.572Z,8.80
2019-04-21T03:20:48.620Z,8.70
2019-04-21T03:23:23.862Z,8.60
2019-04-21T03:26:00.903Z,8.60
2019-04-21T03:28:16.179Z,8.60
2019-04-21T03:31:09.016Z,8.50
2019-04-21T03:38:20.885Z,8.50
2019-04-21T03:40:40.975Z,8.40
2019-04-21T03:43:20.390Z,8.40
2019-04-21T03:45:42.298Z,8.40
2019-04-21T03:48:21.705Z,8.40
2019-04-21T03:53:20.513Z,8.40
2019-04-21T04:06:53.703Z,8.40
2019-04-21T04:09:37.502Z,8.40
2019-04-21T04:14:42.442Z,8.50
2019-04-21T04:16:58.538Z,8.50
2019-04-21T04:19:26.400Z,8.50
2019-04-21T04:21:57.393Z,8.40
2019-04-21T04:24:34.007Z,8.40
2019-04-21T04:37:05.563Z,8.40
2019-04-21T04:40:00.566Z,8.50
2019-04-21T04:47:20.634Z,8.80
2019-04-21T04:52:31.449Z,9.00
2019-04-21T04:57:29.110Z,9.10
2019-04-21T04:59:49.536Z,9.20
2019-04-21T05:04:58.639Z,9.20
2019-04-21T05:07:21.347Z,9.30
2019-04-21T05:09:52.332Z,9.20
2019-04-21T05:12:27.082Z,9.20
2019-04-21T05:14:55.214Z,9.20
2019-04-21T05:17:30.860Z,9.20
2019-04-21T05:22:21.945Z,9.30
2019-04-21T05:24:46.155Z,9.10
2019-04-21T05:27:36.570Z,9.10
2019-04-21T05:30:22.704Z,9.10
2019-04-21T05:33:02.730Z,9.10
2019-04-21T05:36:04.726Z,9.20
2019-04-21T05:38:47.700Z,9.30
2019-04-21T05:41:17.577Z,9.40
2019-04-21T05:43:56.375Z,9.50
2019-04-21T05:46:27.038Z,9.60
2019-04-21T05:48:59.303Z,9.60
2019-04-21T05:51:25.323Z,9.70
2019-04-21T05:54:08.801Z,9.80
2019-04-21T05:56:36.545Z,9.80
2019-04-21T05:59:03.406Z,9.90
2019-04-21T06:04:07.606Z,10.00
2019-04-21T06:06:39.197Z,10.00
2019-04-21T06:09:08.332Z,10.10
2019-04-21T06:11:36.327Z,10.20
2019-04-21T06:14:12.914Z,10.30
2019-04-21T06:16:43.023Z,10.50
2019-04-21T06:19:03.347Z,10.50
2019-04-21T06:21:40.513Z,10.60
2019-04-21T06:24:13.039Z,10.80
2019-04-21T06:26:53.811Z,10.80
2019-04-21T06:29:09.183Z,10.80
2019-04-21T06:34:19.327Z,11.10
2019-04-21T06:37:21.628Z,11.20
2019-04-21T06:39:55.416Z,11.30
2019-04-21T06:42:09.132Z,11.30
2019-04-21T06:44:48.385Z,11.40
2019-04-21T06:47:17.572Z,11.50
2019-04-21T06:49:45.684Z,11.70
2019-04-21T06:52:29.864Z,11.90
2019-04-21T06:54:49.501Z,12.00
2019-04-21T06:57:17.033Z,12.30
2019-04-21T06:59:43.125Z,12.40
2019-04-21T07:02:32.152Z,12.60
2019-04-21T07:07:19.098Z,12.90
2019-04-21T07:09:52.968Z,13.20
2019-04-21T07:12:13.882Z,13.50
2019-04-21T07:14:49.926Z,13.90
2019-04-21T07:17:24.413Z,14.20
2019-04-21T07:22:19.495Z,14.60
2019-04-21T07:24:53.613Z,14.80
2019-04-21T07:27:24.163Z,15.10
2019-04-21T07:29:56.677Z,15.30
2019-04-21T07:32:24.641Z,15.50
2019-04-21T07:34:51.897Z,15.80
2019-04-21T07:37:23.938Z,15.90
2019-04-21T07:39:49.422Z,16.10
2019-04-21T07:42:19.067Z,16.20
2019-04-21T07:44:46.305Z,16.30
2019-04-21T07:47:26.812Z,16.40
2019-04-21T07:50:07.372Z,16.40
2019-04-21T07:52:49.298Z,16.50
2019-04-21T07:57:39.122Z,16.50
2019-04-21T08:02:49.673Z,17.00
2019-04-21T08:05:31.385Z,17.30
2019-04-21T08:07:52.079Z,17.50
2019-04-21T08:10:16.086Z,18.00
2019-04-21T08:12:49.417Z,18.40
2019-04-21T08:15:27.578Z,18.80
2019-04-21T08:17:47.192Z,19.20
2019-04-21T08:20:18.440Z,19.50
2019-04-21T08:22:59.542Z,19.80
2019-04-21T08:25:30.808Z,19.80
2019-04-21T08:27:58.647Z,19.50
2019-04-21T08:33:13.601Z,19.60
2019-04-21T08:37:55.277Z,20.10
2019-04-21T08:40:31.589Z,20.10
2019-04-21T08:42:55.478Z,20.60
2019-04-21T08:45:40.470Z,21.10
2019-04-21T08:48:00.432Z,21.30
2019-04-21T08:50:30.908Z,21.40
2019-04-21T08:52:59.803Z,21.50
2019-04-21T08:56:07.481Z,21.80
2019-04-21T08:59:02.273Z,22.10
2019-04-21T09:04:11.086Z,23.20
2019-04-21T09:11:55.292Z,23.60
2019-04-21T09:14:24.057Z,23.40
2019-04-21T09:16:53.319Z,23.50
2019-04-21T09:19:38.562Z,23.70
2019-04-21T09:22:10.910Z,23.80
2019-04-21T09:24:26.652Z,23.70
2019-04-21T09:27:02.084Z,23.60
2019-04-21T09:29:21.733Z,23.60
2019-04-21T09:31:44.460Z,23.40
2019-04-21T09:34:21.963Z,23.30
2019-04-21T09:36:46.428Z,22.90
2019-04-21T09:39:18.336Z,22.90
2019-04-21T09:41:44.803Z,22.90
2019-04-21T09:44:20.353Z,22.80
2019-04-21T09:46:50.576Z,22.60
2019-04-21T09:49:20.193Z,23.20
2019-04-21T09:51:45.930Z,23.70
2019-04-21T09:54:21.210Z,24.00
2019-04-21T09:56:53.783Z,24.50
2019-04-21T09:59:27.577Z,24.80
2019-04-21T10:01:58.992Z,25.10
2019-04-21T10:04:18.738Z,24.50
2019-04-21T10:06:49.801Z,23.80
2019-04-21T10:09:20.200Z,24.20
2019-04-21T10:11:49.013Z,23.90
2019-04-21T10:14:20.049Z,24.10
2019-04-21T10:17:06.055Z,24.10
2019-04-21T10:19:34.497Z,24.10
2019-04-21T10:22:05.554Z,24.50
2019-04-21T10:24:34.053Z,25.20
2019-04-21T10:27:05.059Z,25.80
2019-04-21T10:29:34.855Z,25.80
2019-04-21T10:32:03.791Z,25.70
2019-04-21T10:34:32.263Z,25.60
2019-04-21T10:37:00.897Z,25.80
2019-04-21T10:39:29.509Z,25.50
2019-04-21T10:41:59.610Z,26.00
2019-04-21T10:44:29.424Z,26.00
2019-04-21T10:49:44.911Z,26.20
2019-04-21T10:52:19.345Z,26.20
2019-04-21T10:55:08.439Z,26.70
2019-04-21T10:57:24.210Z,26.80
2019-04-21T10:59:55.706Z,26.50
2019-04-21T11:02:34.986Z,26.40
2019-04-21T11:05:04.786Z,26.60
2019-04-21T11:07:57.535Z,26.50
2019-04-21T11:10:18.279Z,26.50
2019-04-21T11:12:47.971Z,26.20
2019-04-21T11:15:17.118Z,25.90
2019-04-21T11:17:48.430Z,26.40
2019-04-21T11:20:17.261Z,26.50
2019-04-21T11:22:47.163Z,26.10
2019-04-21T11:25:18.002Z,26.70
2019-04-21T11:27:47.026Z,26.60
2019-04-21T11:30:15.897Z,27.90
2019-04-21T11:32:46.345Z,27.70
2019-04-21T11:35:15.163Z,27.90
2019-04-21T11:37:44.036Z,27.40
2019-04-21T11:40:16.016Z,28.00
2019-04-21T11:42:44.035Z,28.20
2019-04-21T11:45:26.530Z,27.90
2019-04-21T11:48:10.524Z,28.20
2019-04-21T11:50:41.253Z,27.60
2019-04-21T11:53:10.619Z,27.10
2019-04-21T11:55:43.154Z,25.70
2019-04-21T11:58:12.346Z,25.30
2019-04-21T12:00:42.113Z,25.10
2019-04-21T12:03:13.980Z,25.50
2019-04-21T12:05:43.508Z,25.40
2019-04-21T12:08:23.118Z,24.20
2019-04-21T12:10:42.608Z,24.20
2019-04-21T12:13:12.065Z,24.70
2019-04-21T12:15:40.981Z,25.50
2019-04-21T12:18:11.866Z,26.10
2019-04-21T12:20:40.629Z,25.50
2019-04-21T12:23:09.259Z,25.00
2019-04-21T12:25:42.939Z,24.90
2019-04-21T12:28:12.192Z,25.20
2019-04-21T12:30:42.253Z,25.60
2019-04-21T12:33:14.068Z,26.20
2019-04-21T12:35:43.924Z,26.90
2019-04-21T12:38:13.093Z,27.70
2019-04-21T12:40:42.620Z,28.30
2019-04-21T12:43:11.012Z,28.40
2019-04-21T12:45:39.978Z,28.50
2019-04-21T12:48:08.651Z,28.70
2019-04-21T12:50:37.152Z,28.30
2019-04-21T12:53:07.418Z,27.00
2019-04-21T12:55:40.301Z,25.80
2019-04-21T12:58:07.663Z,25.70
2019-04-21T13:00:36.919Z,25.90
2019-04-21T13:03:06.069Z,26.40
2019-04-21T13:05:37.819Z,26.60
2019-04-21T13:08:07.192Z,26.60
2019-04-21T13:10:36.026Z,26.60
2019-04-21T13:13:05.864Z,26.00
2019-04-21T13:15:35.465Z,25.70
2019-04-21T13:18:06.098Z,26.30
2019-04-21T13:20:35.880Z,26.30
2019-04-21T13:23:05.877Z,26.00
2019-04-21T13:25:36.022Z,25.60
2019-04-21T13:28:07.003Z,25.90
2019-04-21T13:30:36.109Z,26.00
2019-04-21T13:33:05.247Z,25.70
2019-04-21T13:35:35.202Z,24.90
2019-04-21T13:38:04.680Z,24.20
2019-04-21T13:41:10.477Z,23.60
2019-04-21T13:43:27.506Z,23.20
2019-04-21T13:45:57.393Z,23.10
2019-04-21T13:48:26.520Z,23.00
2019-04-21T13:50:55.391Z,23.00
2019-04-21T13:53:25.019Z,23.40
2019-04-21T13:55:53.676Z,23.70
2019-04-21T13:58:24.219Z,24.50
2019-04-21T14:00:54.143Z,24.90
2019-04-21T14:03:24.782Z,24.60
2019-04-21T14:05:54.149Z,24.10
2019-04-21T14:08:25.264Z,24.30
2019-04-21T14:10:55.562Z,24.60
2019-04-21T14:13:24.619Z,24.60
2019-04-21T14:15:53.893Z,24.60
2019-04-21T14:18:22.726Z,24.70
2019-04-21T14:20:51.389Z,25.00
2019-04-21T14:23:28.618Z,25.20
2019-04-21T14:25:51.189Z,25.40
2019-04-21T14:28:20.065Z,25.40
2019-04-21T14:30:50.333Z,25.10
2019-04-21T14:33:20.449Z,25.30
2019-04-21T14:35:50.621Z,25.90
2019-04-21T14:38:20.581Z,26.10
2019-04-21T14:40:50.355Z,26.90
2019-04-21T14:43:20.425Z,27.50
2019-04-21T14:46:03.373Z,27.30
2019-04-21T14:48:50.867Z,27.30
2019-04-21T14:51:38.957Z,27.50
2019-04-21T14:54:22.524Z,27.60
2019-04-21T14:56:51.421Z,27.50
2019-04-21T14:59:21.363Z,27.60
2019-04-21T15:01:53.646Z,27.30
2019-04-21T15:04:22.912Z,27.30
2019-04-21T15:06:52.719Z,27.30
2019-04-21T15:09:21.254Z,27.50
2019-04-21T15:11:50.066Z,27.40
2019-04-21T15:14:19.999Z,27.40
2019-04-21T15:16:49.044Z,27.30
2019-04-21T15:19:18.109Z,27.20
2019-04-21T15:21:46.527Z,27.10
2019-04-21T15:24:18.054Z,26.60
2019-04-21T15:26:48.336Z,26.70
2019-04-21T15:29:17.151Z,26.70
2019-04-21T15:31:46.560Z,26.10
2019-04-21T15:34:17.094Z,26.20
2019-04-21T15:36:46.169Z,26.20
2019-04-21T15:39:15.940Z,25.90
2019-04-21T15:41:45.008Z,25.80
2019-04-21T15:44:14.599Z,25.90
2019-04-21T15:46:43.972Z,25.70
2019-04-21T15:49:13.326Z,25.70
2019-04-21T15:51:44.249Z,25.40
2019-04-21T15:54:12.774Z,25.30
2019-04-21T15:56:49.069Z,25.20
2019-04-21T15:59:50.658Z,25.10
2019-04-21T16:02:40.465Z,24.60
2019-04-21T16:05:11.019Z,24.60
2019-04-21T16:07:42.352Z,24.70
2019-04-21T16:10:17.561Z,24.60
2019-04-21T16:12:45.685Z,24.50
2019-04-21T16:15:18.801Z,24.20
2019-04-21T16:17:47.617Z,24.00
2019-04-21T16:20:17.730Z,23.90
2019-04-21T16:22:48.674Z,23.70
2019-04-21T16:25:18.847Z,23.40
2019-04-21T16:27:50.954Z,23.10
2019-04-21T16:30:21.797Z,22.80
2019-04-21T16:32:50.395Z,22.50
2019-04-21T16:35:20.423Z,22.40
2019-04-21T16:37:49.751Z,22.10
2019-04-21T16:40:19.288Z,22.00
2019-04-21T16:42:48.046Z,21.90
2019-04-21T16:45:20.899Z,21.80
2019-04-21T16:47:55.120Z,21.80
2019-04-21T16:53:20.181Z,21.70
2019-04-21T16:55:55.053Z,21.60
2019-04-21T16:58:34.508Z,21.50
2019-04-21T17:01:16.439Z,21.50
2019-04-21T17:03:44.478Z,21.40
2019-04-21T17:06:17.376Z,21.30
2019-04-21T17:08:48.251Z,21.30
2019-04-21T17:11:30.658Z,21.20
2019-04-21T17:13:56.436Z,21.10
2019-04-21T17:16:49.499Z,21.00
2019-04-21T17:19:05.209Z,21.00
2019-04-21T17:21:26.539Z,21.00
2019-04-21T17:23:56.720Z,20.90
2019-04-21T17:26:26.787Z,20.70
2019-04-21T17:28:56.596Z,20.50
2019-04-21T17:31:28.747Z,20.30
2019-04-21T17:34:06.421Z,20.30
2019-04-21T17:36:30.372Z,20.10
2019-04-21T17:39:00.135Z,20.00
2019-04-21T17:41:37.645Z,19.90
2019-04-21T17:44:00.356Z,19.70
2019-04-21T17:46:38.816Z,19.50
2019-04-21T17:49:01.289Z,19.40
2019-04-21T17:51:58.613Z,19.40
2019-04-21T17:54:39.254Z,19.30
2019-04-21T17:57:26.325Z,19.10
2019-04-21T18:02:31.066Z,19.00
2019-04-21T18:04:57.711Z,19.10
2019-04-21T18:07:29.963Z,19.10
2019-04-21T18:10:04.471Z,19.10
2019-04-21T18:12:33.416Z,19.10
2019-04-21T18:14:56.766Z,19.10
2019-04-21T18:17:18.489Z,19.20
2019-04-21T18:19:51.143Z,19.10
2019-04-21T18:22:43.545Z,19.30
2019-04-21T18:25:28.488Z,19.20
2019-04-21T18:27:47.616Z,19.10
2019-04-21T18:31:20.570Z,19.00
2019-04-21T18:34:04.586Z,19.00
2019-04-21T18:36:36.626Z,18.90
2019-04-21T18:39:34.253Z,18.80
2019-04-21T18:42:18.595Z,18.80
2019-04-21T18:48:05.041Z,18.70
2019-04-21T18:50:51.086Z,18.60
2019-04-21T18:53:36.412Z,18.70
2019-04-21T18:55:58.162Z,18.50
2019-04-21T18:58:22.172Z,18.40
2019-04-21T19:00:52.935Z,18.60
2019-04-21T19:03:28.305Z,18.80
2019-04-21T19:05:58.281Z,18.80
2019-04-21T19:08:38.837Z,18.70
2019-04-21T19:11:13.676Z,18.30
2019-04-21T19:14:12.717Z,18.00
2019-04-21T19:16:42.816Z,17.80
2019-04-21T19:19:31.636Z,17.50
2019-04-21T19:21:28.372Z,17.40
2019-04-21T19:24:17.863Z,17.30
2019-04-21T19:26:50.432Z,17.00
2019-04-21T19:31:54.919Z,16.70
2019-04-21T19:34:19.825Z,16.50
2019-04-21T19:36:50.999Z,16.40
2019-04-21T19:39:23.319Z,16.20
2019-04-21T19:41:58.357Z,16.10
2019-04-21T19:44:33.845Z,16.20
2019-04-21T19:47:02.995Z,16.20
2019-04-21T19:49:39.990Z,16.20
2019-04-21T19:51:56.311Z,16.10
2019-04-21T19:54:31.619Z,16.00
2019-04-21T19:56:53.561Z,16.20
2019-04-21T19:59:32.475Z,16.40
2019-04-21T20:01:53.975Z,16.60
2019-04-21T20:04:33.563Z,16.80
2019-04-21T20:07:02.813Z,16.80
2019-04-21T20:09:40.707Z,16.80
2019-04-21T20:12:21.502Z,16.80
2019-04-21T20:17:38.354Z,16.40
2019-04-21T20:19:50.315Z,16.50
2019-04-21T20:22:23.970Z,16.30
2019-04-21T20:25:01.730Z,16.30
2019-04-21T20:27:36.218Z,16.30
2019-04-21T20:30:16.125Z,16.30
2019-04-21T20:32:49.116Z,16.30
2019-04-21T20:35:22.474Z,16.10
2019-04-21T20:37:47.841Z,16.00
2019-04-21T20:40:15.958Z,16.00
2019-04-21T20:42:47.149Z,15.90
2019-04-21T20:47:42.375Z,15.90
2019-04-21T20:50:22.186Z,15.90
2019-04-21T20:52:58.396Z,15.80
2019-04-21T20:55:21.716Z,15.80
2019-04-21T20:57:53.860Z,15.80
2019-04-21T21:00:31.822Z,15.80
2019-04-21T21:03:07.455Z,15.80
2019-04-21T21:05:27.445Z,15.70
2019-04-21T21:08:13.388Z,15.80
2019-04-21T21:10:36.744Z,16.00
2019-04-21T21:13:14.497Z,15.90
2019-04-21T21:15:35.870Z,15.80
2019-04-21T21:18:23.397Z,15.70
2019-04-21T21:20:44.362Z,15.50
2019-04-21T21:23:02.831Z,15.30
2019-04-21T21:25:45.165Z,15.30
2019-04-21T21:28:04.335Z,15.10
2019-04-21T21:30:41.446Z,15.00
2019-04-21T21:33:18.529Z,15.00
2019-04-21T21:35:41.130Z,14.90
2019-04-21T21:38:21.333Z,14.80
2019-04-21T21:40:48.988Z,14.70
2019-04-21T21:43:08.179Z,14.70
2019-04-21T21:45:45.197Z,14.70
2019-04-21T21:48:28.878Z,14.70
2019-04-21T21:50:50.409Z,14.80
2019-04-21T21:53:18.764Z,14.70
2019-04-21T21:55:42.885Z,14.60
2019-04-21T21:58:15.365Z,14.60
2019-04-21T22:00:49.987Z,14.50
2019-04-21T22:03:24.479Z,14.50
2019-04-21T22:05:58.328Z,14.80
2019-04-21T22:08:22.512Z,14.90
2019-04-21T22:10:52.885Z,14.90
2019-04-21T22:13:31.529Z,14.90
2019-04-21T22:16:00.377Z,15.00
2019-04-21T22:18:41.004Z,15.10
2019-04-21T22:21:07.642Z,15.00
2019-04-21T22:23:36.909Z,14.60
2019-04-21T22:25:57.477Z,14.30
2019-04-21T22:28:27.492Z,14.00
2019-04-21T22:30:58.743Z,13.90
2019-04-21T22:33:32.861Z,13.70
2019-04-21T22:36:05.708Z,13.60
2019-04-21T22:38:43.672Z,13.50
2019-04-21T22:41:11.929Z,13.50
2019-04-21T22:43:36.640Z,13.40
2019-04-21T22:46:01.100Z,13.30
2019-04-21T22:48:30.686Z,13.30
2019-04-21T22:51:00.590Z,13.30
2019-04-21T22:53:36.306Z,13.20
2019-04-21T22:56:10.328Z,13.20
2019-04-21T22:58:35.777Z,13.20
2019-04-21T23:01:05.240Z,13.20
2019-04-21T23:03:35.729Z,13.30
2019-04-21T23:06:12.231Z,13.40
2019-04-21T23:08:40.514Z,13.30
2019-04-21T23:11:10.004Z,13.20
2019-04-21T23:13:36.372Z,13.20
2019-04-21T23:16:07.608Z,13.10
2019-04-21T23:18:50.195Z,13.10
2019-04-21T23:21:23.089Z,13.00
2019-04-21T23:23:57.199Z,13.00
2019-04-21T23:26:29.731Z,12.90
2019-04-21T23:29:03.390Z,12.80
2019-04-21T23:31:34.442Z,12.70
2019-04-21T23:33:48.294Z,12.60
2019-04-21T23:36:22.605Z,12.60
2019-04-21T23:38:51.993Z,12.50
2019-04-21T23:41:21.497Z,12.40
2019-04-21T23:43:59.145Z,12.30
2019-04-21T23:46:28.464Z,12.20
2019-04-21T23:49:08.511Z,12.10
2019-04-21T23:51:34.468Z,12.00
2019-04-21T23:53:55.420Z,11.90
2019-04-21T23:56:29.966Z,11.90
2019-04-21T23:58:59.839Z,11.90
